createdAt,value
2022-10-25T00:02:21.739Z,80.51
2022-10-25T00:04:49.556Z,80.55
2022-10-25T00:07:17.240Z,80.57
2022-10-25T00:09:45.046Z,80.46
2022-10-25T00:12:12.813Z,80.55
2022-10-25T00:14:40.581Z,80.57
2022-10-25T00:17:08.557Z,80.59
2022-10-25T00:19:36.633Z,80.59
2022-10-25T00:22:04.307Z,80.64
2022-10-25T00:24:31.985Z,80.68
2022-10-25T00:26:59.651Z,80.72
2022-10-25T00:29:27.509Z,80.86
2022-10-25T00:31:55.183Z,80.91
2022-10-25T00:34:23.038Z,80.99
2022-10-25T00:36:50.785Z,81.02
2022-10-25T00:39:18.538Z,80.98
2022-10-25T00:41:46.234Z,80.94
2022-10-25T00:44:36.080Z,80.94
2022-10-25T00:47:06.615Z,80.89
2022-10-25T00:49:34.625Z,80.81
2022-10-25T00:52:07.289Z,80.88
2022-10-25T00:54:43.259Z,80.83
2022-10-25T00:57:27.578Z,80.87
2022-10-25T00:59:55.378Z,81.04
2022-10-25T01:02:23.605Z,81.29
2022-10-25T01:04:52.761Z,81.64
2022-10-25T01:07:20.632Z,81.67
2022-10-25T01:09:48.613Z,81.53
2022-10-25T01:12:16.373Z,81.33
2022-10-25T01:14:48.429Z,81.47
2022-10-25T01:17:28.181Z,81.68
2022-10-25T01:20:23.268Z,81.91
2022-10-25T01:23:04.036Z,82.52
2022-10-25T01:25:31.698Z,83.03
2022-10-25T01:27:59.343Z,82.85
2022-10-25T01:30:32.974Z,82.96
2022-10-25T01:33:09.850Z,83.14
2022-10-25T01:36:11.781Z,83.27
2022-10-25T01:38:48.344Z,83.29
2022-10-25T01:41:18.898Z,83.67
2022-10-25T01:43:55.382Z,83.63
2022-10-25T01:46:29.252Z,83.74
2022-10-25T01:49:04.927Z,83.49
2022-10-25T01:51:36.991Z,84.01
2022-10-25T01:54:19.174Z,84.02
2022-10-25T01:56:53.505Z,83.48
2022-10-25T01:59:27.005Z,84.13
2022-10-25T02:02:12.485Z,84.52
2022-10-25T02:04:43.326Z,84.96
2022-10-25T02:07:21.039Z,84.75
2022-10-25T02:10:09.652Z,84.63
2022-10-25T02:12:58.597Z,84.91
2022-10-25T02:16:03.116Z,85.33
2022-10-25T02:18:35.730Z,85.70
2022-10-25T02:21:05.695Z,85.93
2022-10-25T02:23:36.242Z,86.26
2022-10-25T02:26:07.493Z,86.41
2022-10-25T02:28:39.153Z,86.52
2022-10-25T02:31:10.277Z,86.55
2022-10-25T02:33:38.501Z,86.54
2022-10-25T02:36:12.682Z,86.74
2022-10-25T02:38:42.031Z,86.73
2022-10-25T02:41:10.432Z,86.85
2022-10-25T02:43:38.156Z,86.76
2022-10-25T02:46:14.319Z,87.03
2022-10-25T02:48:42.904Z,86.87
2022-10-25T02:51:11.912Z,86.23
2022-10-25T02:53:40.370Z,85.76
2022-10-25T02:56:11.889Z,85.77
2022-10-25T02:58:41.602Z,85.84
2022-10-25T03:01:10.366Z,85.64
2022-10-25T03:03:38.626Z,85.49
2022-10-25T03:06:07.927Z,85.56
2022-10-25T03:08:36.083Z,85.32
2022-10-25T03:11:04.984Z,85.01
2022-10-25T03:13:32.756Z,84.64
2022-10-25T03:16:01.050Z,85.01
2022-10-25T03:18:28.921Z,85.12
2022-10-25T03:21:01.820Z,85.29
2022-10-25T03:23:30.488Z,85.90
2022-10-25T03:26:00.306Z,86.02
2022-10-25T03:28:29.546Z,85.73
2022-10-25T03:30:58.936Z,85.50
2022-10-25T03:33:27.079Z,85.30
2022-10-25T03:35:55.988Z,84.98
2022-10-25T03:38:23.725Z,84.65
2022-10-25T03:40:51.534Z,84.56
2022-10-25T03:43:19.449Z,84.44
2022-10-25T03:45:47.133Z,84.12
2022-10-25T03:48:15.415Z,84.20
2022-10-25T03:50:43.311Z,84.14
2022-10-25T03:53:11.575Z,83.96
2022-10-25T03:55:39.339Z,83.91
2022-10-25T03:58:07.037Z,84.10
2022-10-25T04:00:34.764Z,84.10
2022-10-25T04:03:03.153Z,84.15
2022-10-25T04:05:31.973Z,83.79
2022-10-25T04:07:59.806Z,84.23
2022-10-25T04:10:27.711Z,84.36
2022-10-25T04:12:55.459Z,84.22
2022-10-25T04:15:24.697Z,84.09
2022-10-25T04:17:52.831Z,84.09
2022-10-25T04:20:21.559Z,84.41
2022-10-25T04:22:56.811Z,84.87
2022-10-25T04:25:26.589Z,84.79
2022-10-25T04:27:54.871Z,84.92
2022-10-25T04:30:22.618Z,84.96
2022-10-25T04:32:50.621Z,84.68
2022-10-25T04:35:18.825Z,84.45
2022-10-25T04:37:46.588Z,84.18
2022-10-25T04:40:14.338Z,83.94
2022-10-25T04:42:42.105Z,83.91
2022-10-25T04:45:10.302Z,84.25
2022-10-25T04:47:37.979Z,84.35
2022-10-25T04:50:06.950Z,84.11
2022-10-25T04:52:34.670Z,83.96
2022-10-25T04:55:02.605Z,84.21
2022-10-25T04:57:30.388Z,84.35
2022-10-25T04:59:58.344Z,84.30
2022-10-25T05:02:26.143Z,84.20
2022-10-25T05:04:54.292Z,84.09
2022-10-25T05:07:22.122Z,84.06
2022-10-25T05:09:49.835Z,83.97
2022-10-25T05:12:17.599Z,84.17
2022-10-25T05:14:45.350Z,84.04
2022-10-25T05:17:13.137Z,84.06
2022-10-25T05:19:40.906Z,84.11
2022-10-25T05:22:08.676Z,84.09
2022-10-25T05:24:36.444Z,84.03
2022-10-25T05:27:04.931Z,84.56
2022-10-25T05:29:32.800Z,84.49
2022-10-25T05:32:00.527Z,84.49
2022-10-25T05:38:28.967Z,84.44
2022-10-25T05:43:28.228Z,84.62
2022-10-25T05:46:04.327Z,84.73
2022-10-25T05:48:33.169Z,84.61
2022-10-25T05:51:33.267Z,84.61
2022-10-25T05:54:07.824Z,84.27
2022-10-25T05:56:36.661Z,84.26
2022-10-25T05:59:13.164Z,84.19
2022-10-25T06:01:45.946Z,84.00
2022-10-25T06:04:14.699Z,84.11
2022-10-25T06:06:44.576Z,84.11
2022-10-25T06:09:13.569Z,84.18
2022-10-25T06:11:41.472Z,83.98
2022-10-25T06:14:10.460Z,83.83
2022-10-25T06:16:38.750Z,83.46
2022-10-25T06:19:07.230Z,83.56
2022-10-25T06:21:35.508Z,83.53
2022-10-25T06:24:04.586Z,83.28
2022-10-25T06:26:32.747Z,83.29
2022-10-25T06:29:03.042Z,83.16
2022-10-25T06:31:32.970Z,83.13
2022-10-25T06:34:02.089Z,82.88
2022-10-25T06:36:31.523Z,83.04
2022-10-25T06:39:05.822Z,83.33
2022-10-25T06:41:37.244Z,83.43
2022-10-25T06:44:07.864Z,83.41
2022-10-25T06:47:04.461Z,83.53
2022-10-25T06:49:26.667Z,83.68
2022-10-25T06:51:54.930Z,83.55
2022-10-25T06:54:22.933Z,83.68
2022-10-25T06:56:50.857Z,83.72
2022-10-25T06:59:20.660Z,83.92
2022-10-25T07:01:48.768Z,84.03
2022-10-25T07:04:16.803Z,84.22
2022-10-25T07:06:47.923Z,84.28
2022-10-25T07:09:17.987Z,84.36
2022-10-25T07:11:46.031Z,84.58
2022-10-25T07:14:13.941Z,84.41
2022-10-25T07:16:41.765Z,84.10
2022-10-25T07:19:13.268Z,83.84
2022-10-25T07:21:42.144Z,83.54
2022-10-25T07:24:11.375Z,83.39
2022-10-25T07:26:40.573Z,83.16
2022-10-25T07:29:08.679Z,83.02
2022-10-25T07:31:42.499Z,83.01
2022-10-25T07:34:14.026Z,82.72
2022-10-25T07:36:42.229Z,82.49
2022-10-25T07:39:10.173Z,82.12
2022-10-25T07:41:37.951Z,81.87
2022-10-25T07:44:06.025Z,81.61
2022-10-25T07:46:33.855Z,81.65
2022-10-25T07:49:01.836Z,81.13
2022-10-25T07:51:29.643Z,81.06
2022-10-25T07:53:57.849Z,80.88
2022-10-25T07:56:25.771Z,80.77
2022-10-25T07:58:53.618Z,80.84
2022-10-25T08:01:28.705Z,80.31
2022-10-25T08:03:59.842Z,79.80
2022-10-25T08:06:28.465Z,79.86
2022-10-25T08:08:56.265Z,80.04
2022-10-25T08:11:24.118Z,80.33
2022-10-25T08:13:52.005Z,79.83
2022-10-25T08:16:19.879Z,79.64
2022-10-25T08:18:47.808Z,79.41
2022-10-25T08:21:16.042Z,78.85
2022-10-25T08:23:43.926Z,78.68
2022-10-25T08:26:11.816Z,78.68
2022-10-25T08:28:39.899Z,78.62
2022-10-25T08:31:11.077Z,78.35
2022-10-25T08:33:42.263Z,78.17
2022-10-25T08:36:10.380Z,78.25
2022-10-25T08:38:38.232Z,78.12
2022-10-25T08:41:17.843Z,78.49
2022-10-25T08:44:04.591Z,78.64
2022-10-25T08:46:59.636Z,78.80
2022-10-25T08:49:41.897Z,78.97
2022-10-25T08:52:44.069Z,78.63
2022-10-25T08:55:32.050Z,78.45
2022-10-25T08:58:02.672Z,78.60
2022-10-25T09:00:38.245Z,78.23
2022-10-25T09:03:17.808Z,77.96
2022-10-25T09:06:02.322Z,77.54
2022-10-25T09:08:43.034Z,77.00
2022-10-25T09:11:33.165Z,76.17
2022-10-25T09:14:22.750Z,75.67
2022-10-25T09:16:53.547Z,75.29
2022-10-25T09:19:36.288Z,74.95
2022-10-25T09:22:10.744Z,74.82
2022-10-25T09:25:03.247Z,73.85
2022-10-25T09:27:38.694Z,74.13
2022-10-25T09:30:10.976Z,72.55
2022-10-25T09:32:44.944Z,72.38
2022-10-25T09:35:40.644Z,72.24
2022-10-25T09:38:46.605Z,72.63
2022-10-25T09:41:32.416Z,72.77
2022-10-25T09:44:26.122Z,72.78
2022-10-25T09:47:12.450Z,73.30
2022-10-25T09:50:19.452Z,73.54
2022-10-25T09:53:20.289Z,73.75
2022-10-25T09:55:57.926Z,73.59
2022-10-25T09:58:36.358Z,73.62
2022-10-25T10:01:15.396Z,73.88
2022-10-25T10:03:45.503Z,74.41
2022-10-25T10:06:33.710Z,74.11
2022-10-25T10:09:07.029Z,73.98
2022-10-25T10:11:37.744Z,73.98
2022-10-25T10:14:31.987Z,74.01
2022-10-25T10:17:01.067Z,74.06
2022-10-25T10:19:31.722Z,73.56
2022-10-25T10:22:08.824Z,73.73
2022-10-25T10:24:40.101Z,73.65
2022-10-25T10:27:13.291Z,73.48
2022-10-25T10:30:00.007Z,73.22
2022-10-25T10:32:36.560Z,73.32
2022-10-25T10:35:26.331Z,73.26
2022-10-25T10:38:28.870Z,73.37
2022-10-25T10:44:31.109Z,73.82
2022-10-25T10:46:59.216Z,73.06
2022-10-25T10:49:41.355Z,73.49
2022-10-25T10:52:33.395Z,73.62
2022-10-25T10:55:02.127Z,73.41
2022-10-25T10:57:38.082Z,73.48
2022-10-25T11:00:07.125Z,73.32
2022-10-25T11:02:42.423Z,73.30
2022-10-25T11:05:41.302Z,72.84
2022-10-25T11:08:12.056Z,73.22
2022-10-25T11:10:41.118Z,73.75
2022-10-25T11:13:20.835Z,73.30
2022-10-25T11:16:35.513Z,73.04
2022-10-25T11:19:43.638Z,72.13
2022-10-25T11:22:40.128Z,72.21
2022-10-25T11:25:32.181Z,72.01
2022-10-25T11:28:26.667Z,71.73
2022-10-25T11:31:06.207Z,71.58
2022-10-25T11:33:37.526Z,70.90
2022-10-25T11:36:27.579Z,70.50
2022-10-25T11:39:04.415Z,70.67
2022-10-25T11:41:34.155Z,70.78
2022-10-25T11:44:22.252Z,70.31
2022-10-25T11:47:14.348Z,70.61
2022-10-25T11:50:28.257Z,70.23
2022-10-25T11:53:16.399Z,70.14
2022-10-25T11:55:59.350Z,70.28
2022-10-25T11:58:50.611Z,70.13
2022-10-25T12:01:21.327Z,69.76
2022-10-25T12:03:56.523Z,69.30
2022-10-25T12:06:29.726Z,69.80
2022-10-25T12:09:16.380Z,69.65
2022-10-25T12:11:53.808Z,69.47
2022-10-25T12:14:39.521Z,69.53
2022-10-25T12:17:26.723Z,69.80
2022-10-25T12:19:58.899Z,69.92
2022-10-25T12:22:49.662Z,70.27
2022-10-25T12:25:32.499Z,70.00
2022-10-25T12:28:11.488Z,69.91
2022-10-25T12:30:45.146Z,69.63
2022-10-25T12:33:17.104Z,70.08
2022-10-25T12:36:01.945Z,70.18
2022-10-25T12:38:37.207Z,69.88
2022-10-25T12:41:18.516Z,69.97
2022-10-25T12:44:11.048Z,69.91
2022-10-25T12:46:58.142Z,69.80
2022-10-25T12:49:37.289Z,70.14
2022-10-25T12:52:05.031Z,70.01
2022-10-25T12:54:55.359Z,70.27
2022-10-25T12:57:47.414Z,69.90
2022-10-25T13:03:00.410Z,69.76
2022-10-25T13:05:58.363Z,69.85
2022-10-25T13:08:28.121Z,69.73
2022-10-25T13:11:05.905Z,69.02
2022-10-25T13:13:49.766Z,69.12
2022-10-25T13:16:30.387Z,69.19
2022-10-25T13:19:54.195Z,69.49
2022-10-25T13:22:37.854Z,69.69
2022-10-25T13:25:12.985Z,69.74
2022-10-25T13:28:16.500Z,70.03
2022-10-25T13:30:46.641Z,70.27
2022-10-25T13:33:28.610Z,69.93
2022-10-25T13:36:00.103Z,69.98
2022-10-25T13:38:39.042Z,69.85
2022-10-25T13:41:19.637Z,69.70
2022-10-25T13:44:24.765Z,69.47
2022-10-25T13:46:54.880Z,69.64
2022-10-25T13:49:34.913Z,69.74
2022-10-25T13:52:32.296Z,69.90
2022-10-25T13:55:06.445Z,70.14
2022-10-25T13:57:55.842Z,70.26
2022-10-25T14:00:23.882Z,70.41
2022-10-25T14:03:10.481Z,70.64
2022-10-25T14:05:55.453Z,70.64
2022-10-25T14:08:44.101Z,70.92
2022-10-25T14:11:30.601Z,70.88
2022-10-25T14:14:07.585Z,71.31
2022-10-25T14:16:42.207Z,71.59
2022-10-25T14:19:17.239Z,71.82
2022-10-25T14:21:52.587Z,71.98
2022-10-25T14:24:23.597Z,71.81
2022-10-25T14:26:58.977Z,71.74
2022-10-25T14:29:29.508Z,71.16
2022-10-25T14:31:57.818Z,71.10
2022-10-25T14:34:28.703Z,71.27
2022-10-25T14:36:59.074Z,71.32
2022-10-25T14:39:31.186Z,71.30
2022-10-25T14:42:01.624Z,71.38
2022-10-25T14:44:45.635Z,71.08
2022-10-25T14:47:33.964Z,71.20
2022-10-25T14:50:02.399Z,71.42
2022-10-25T14:52:31.588Z,71.46
2022-10-25T14:55:04.289Z,71.48
2022-10-25T14:57:34.792Z,71.28
2022-10-25T15:00:07.095Z,71.41
2022-10-25T15:02:39.931Z,71.56
2022-10-25T15:05:17.578Z,71.71
2022-10-25T15:07:49.652Z,71.99
2022-10-25T15:10:44.375Z,71.98
2022-10-25T15:13:14.861Z,72.19
2022-10-25T15:15:47.916Z,72.39
2022-10-25T15:18:25.463Z,72.60
2022-10-25T15:21:09.721Z,72.51
2022-10-25T15:23:40.004Z,72.71
2022-10-25T15:26:27.314Z,72.83
2022-10-25T15:29:01.516Z,72.92
2022-10-25T15:31:32.005Z,73.02
2022-10-25T15:34:02.286Z,73.29
2022-10-25T15:36:33.009Z,73.36
2022-10-25T15:39:10.491Z,73.39
2022-10-25T15:41:42.628Z,73.55
2022-10-25T15:44:10.579Z,73.66
2022-10-25T15:46:40.413Z,73.69
2022-10-25T15:49:12.815Z,73.84
2022-10-25T15:51:43.726Z,73.89
2022-10-25T15:54:18.886Z,73.84
2022-10-25T15:56:48.112Z,74.15
2022-10-25T16:01:49.318Z,74.28
2022-10-25T16:04:18.796Z,74.20
2022-10-25T16:06:50.436Z,74.24
2022-10-25T16:09:18.668Z,74.37
2022-10-25T16:11:54.286Z,74.38
2022-10-25T16:14:25.466Z,74.50
2022-10-25T16:16:53.863Z,74.21
2022-10-25T16:19:22.098Z,74.54
2022-10-25T16:21:51.205Z,74.47
2022-10-25T16:24:20.346Z,74.49
2022-10-25T16:26:49.344Z,74.62
2022-10-25T16:29:25.511Z,74.63
2022-10-25T16:31:54.165Z,74.58
2022-10-25T16:34:22.141Z,74.61
2022-10-25T16:36:52.556Z,74.58
2022-10-25T16:39:21.511Z,74.52
2022-10-25T16:41:49.856Z,74.41
2022-10-25T16:44:19.686Z,74.42
2022-10-25T16:46:47.574Z,74.39
2022-10-25T16:49:18.125Z,74.47
2022-10-25T16:51:45.956Z,74.49
2022-10-25T16:54:15.578Z,74.47
2022-10-25T16:56:44.965Z,74.41
2022-10-25T16:59:12.764Z,74.47
2022-10-25T17:01:44.548Z,74.33
2022-10-25T17:04:14.848Z,74.30
2022-10-25T17:06:42.986Z,74.36
2022-10-25T17:09:11.617Z,74.31
2022-10-25T17:11:39.790Z,74.29
2022-10-25T17:14:09.954Z,74.36
2022-10-25T17:16:43.251Z,74.37
2022-10-25T17:19:11.416Z,74.26
2022-10-25T17:21:40.276Z,74.33
2022-10-25T17:24:09.770Z,74.25
2022-10-25T17:26:39.170Z,74.32
2022-10-25T17:29:07.798Z,74.54
2022-10-25T17:31:36.187Z,74.50
2022-10-25T17:34:04.390Z,74.64
2022-10-25T17:36:32.853Z,74.64
2022-10-25T17:39:01.288Z,74.65
2022-10-25T17:41:29.197Z,74.72
2022-10-25T17:43:57.306Z,74.80
2022-10-25T17:46:31.788Z,74.87
2022-10-25T17:49:03.395Z,74.91
2022-10-25T17:51:33.919Z,74.98
2022-10-25T17:54:01.899Z,75.04
2022-10-25T17:56:33.007Z,75.13
2022-10-25T17:59:04.355Z,75.21
2022-10-25T18:01:37.697Z,75.31
2022-10-25T18:04:07.421Z,75.37
2022-10-25T18:06:35.375Z,75.29
2022-10-25T18:09:06.765Z,75.57
2022-10-25T18:11:34.780Z,75.63
2022-10-25T18:14:05.515Z,75.57
2022-10-25T18:16:34.002Z,75.72
2022-10-25T18:19:04.829Z,75.79
2022-10-25T18:21:37.043Z,75.87
2022-10-25T18:24:05.793Z,75.96
2022-10-25T18:26:35.289Z,76.07
2022-10-25T18:29:03.782Z,76.05
2022-10-25T18:31:31.629Z,76.03
2022-10-25T18:34:03.484Z,75.96
2022-10-25T18:36:32.236Z,75.87
2022-10-25T18:39:00.121Z,76.04
2022-10-25T18:41:31.034Z,76.23
2022-10-25T18:43:59.771Z,76.21
2022-10-25T18:46:32.002Z,76.39
2022-10-25T18:49:00.257Z,76.24
2022-10-25T18:51:30.011Z,76.32
2022-10-25T18:54:00.344Z,76.51
2022-10-25T18:56:30.037Z,76.34
2022-10-25T18:58:59.183Z,76.55
2022-10-25T19:01:32.502Z,76.48
2022-10-25T19:04:03.236Z,76.73
2022-10-25T19:06:32.650Z,76.80
2022-10-25T19:09:02.958Z,76.78
2022-10-25T19:11:33.404Z,76.79
2022-10-25T19:14:03.197Z,76.76
2022-10-25T19:16:31.315Z,76.73
2022-10-25T19:19:08.204Z,76.73
2022-10-25T19:21:36.138Z,76.87
2022-10-25T19:24:04.934Z,76.85
2022-10-25T19:26:32.905Z,76.95
2022-10-25T19:29:02.689Z,76.96
2022-10-25T19:31:30.822Z,76.84
2022-10-25T19:34:00.792Z,76.90
2022-10-25T19:36:30.507Z,76.97
2022-10-25T19:38:58.626Z,76.93
2022-10-25T19:41:26.683Z,76.94
2022-10-25T19:43:57.031Z,76.92
2022-10-25T19:46:26.860Z,77.06
2022-10-25T19:49:00.538Z,76.83
2022-10-25T19:51:28.863Z,76.79
2022-10-25T19:53:56.795Z,76.85
2022-10-25T19:56:24.796Z,76.87
2022-10-25T19:58:52.682Z,76.74
2022-10-25T20:01:24.809Z,76.78
2022-10-25T20:04:00.981Z,76.71
2022-10-25T20:06:34.459Z,76.76
2022-10-25T20:09:02.762Z,76.57
2022-10-25T20:11:33.282Z,76.61
2022-10-25T20:14:02.523Z,76.61
2022-10-25T20:16:31.660Z,76.72
2022-10-25T20:19:01.205Z,76.57
2022-10-25T20:21:34.861Z,76.82
2022-10-25T20:24:06.571Z,76.84
2022-10-25T20:26:38.807Z,76.84
2022-10-25T20:29:16.956Z,76.71
2022-10-25T20:31:50.386Z,76.83
2022-10-25T20:34:20.056Z,76.69
2022-10-25T20:36:48.416Z,76.73
2022-10-25T20:39:16.677Z,76.72
2022-10-25T20:41:44.875Z,76.78
2022-10-25T20:44:14.745Z,76.73
2022-10-25T20:46:42.719Z,76.72
2022-10-25T20:49:10.603Z,76.89
2022-10-25T20:51:39.732Z,77.00
2022-10-25T20:54:09.869Z,77.07
2022-10-25T20:56:39.885Z,77.14
2022-10-25T20:59:10.941Z,77.30
2022-10-25T21:01:39.284Z,77.54
2022-10-25T21:04:09.515Z,77.64
2022-10-25T21:06:38.108Z,77.74
2022-10-25T21:09:06.436Z,77.85
2022-10-25T21:11:34.470Z,78.08
2022-10-25T21:14:02.811Z,78.24
2022-10-25T21:16:31.542Z,78.15
2022-10-25T21:19:05.609Z,78.33
2022-10-25T21:21:33.947Z,78.44
2022-10-25T21:24:03.090Z,78.39
2022-10-25T21:26:31.242Z,78.56
2022-10-25T21:28:59.043Z,78.59
2022-10-25T21:31:26.842Z,78.71
2022-10-25T21:33:58.685Z,78.65
2022-10-25T21:36:28.036Z,78.81
2022-10-25T21:38:58.525Z,78.89
2022-10-25T21:41:27.213Z,78.98
2022-10-25T21:43:58.134Z,79.01
2022-10-25T21:46:28.495Z,79.10
2022-10-25T21:48:56.853Z,79.22
2022-10-25T21:51:25.354Z,79.15
2022-10-25T21:53:54.920Z,79.10
2022-10-25T21:56:31.197Z,79.08
2022-10-25T21:59:01.976Z,79.11
2022-10-25T22:01:33.620Z,79.10
2022-10-25T22:04:04.686Z,79.30
2022-10-25T22:06:32.822Z,79.32
2022-10-25T22:09:02.820Z,79.35
2022-10-25T22:11:34.146Z,79.37
2022-10-25T22:14:08.897Z,79.38
2022-10-25T22:16:37.042Z,79.48
2022-10-25T22:19:10.581Z,79.69
2022-10-25T22:21:39.847Z,79.54
2022-10-25T22:24:10.989Z,79.46
2022-10-25T22:26:43.338Z,79.57
2022-10-25T22:29:13.868Z,79.70
2022-10-25T22:31:42.011Z,79.82
2022-10-25T22:34:10.465Z,79.94
2022-10-25T22:36:41.253Z,79.89
2022-10-25T22:39:10.057Z,80.10
2022-10-25T22:41:38.412Z,79.85
2022-10-25T22:44:06.256Z,80.07
2022-10-25T22:46:36.370Z,80.09
2022-10-25T22:49:07.071Z,79.98
2022-10-25T22:51:35.988Z,80.18
2022-10-25T22:54:03.987Z,80.19
2022-10-25T22:56:32.618Z,80.01
2022-10-25T22:59:03.148Z,79.92
2022-10-25T23:01:33.694Z,80.04
2022-10-25T23:04:12.113Z,80.00
2022-10-25T23:06:40.892Z,80.00
2022-10-25T23:09:10.867Z,80.04
2022-10-25T23:11:41.725Z,80.16
2022-10-25T23:14:14.724Z,80.04
2022-10-25T23:16:46.344Z,80.38
2022-10-25T23:19:14.378Z,80.40
2022-10-25T23:21:42.265Z,80.45
2022-10-25T23:24:10.675Z,80.64
2022-10-25T23:26:38.887Z,80.52
2022-10-25T23:29:06.741Z,80.60
2022-10-25T23:31:34.972Z,80.69
2022-10-25T23:34:03.171Z,80.78
2022-10-25T23:36:37.989Z,80.80
2022-10-25T23:39:07.999Z,80.90
2022-10-25T23:41:37.038Z,80.85
2022-10-25T23:44:06.825Z,80.88
2022-10-25T23:46:35.245Z,81.11
2022-10-25T23:49:03.741Z,81.15
2022-10-25T23:51:31.767Z,81.12
2022-10-25T23:53:59.910Z,81.15
2022-10-25T23:56:27.687Z,81.19
2022-10-25T23:58:55.631Z,81.35
